Gridley, IL (61744)

12:14 AM CST on February 10, 2016 (GMT -0600)
Lake Bloomington | | Change Station
CLOSE
Current Station
Personal Weather Station
Location: Hudson, IL
Elevation: 748 ft
Nearby Weather Stations

Elev 748 ft 40.65 °N, 88.93 °W | Updated 4 seconds ago

Partly Cloudy
Partly Cloudy
12.0 °F
Feels Like 12 °F
N
1.3
Wind Variable Wind from SSW
Gusts 2.5 mph

Today
High -- | Low -- °F
--% Chance of Precip.
Yesterday
High -- | Low -- °F
Precip. -- in
Pressure 30.01 in
Visibility 10.0 miles
Clouds Clear
Windchill 12 °F
Dew Point -0 °F
Humidity 57%
Rainfall 0.00 in
Snow Depth Not available.
6:56 AM 5:23 PM
Waxing Crescent, 4% visible
METAR KPNT 100555Z AUTO 28011KT 10SM CLR M11/M14 A3001 RMK AO2 T11101145 11076 21110 410601110
Pressure 30.01 in
Visibility 10.0 miles
Clouds Clear
Windchill 12 °F
Dew Point -0 °F
Humidity 57%
Rainfall 0.00 in
Snow Depth Not available.
6:56 AM 5:23 PM
Waxing Crescent, 4% visible
METAR KPNT 100555Z AUTO 28011KT 10SM CLR M11/M14 A3001 RMK AO2 T11101145 11076 21110 410601110

10-Day Weather Forecast

Almanac

Astronomy

Feb. 10, 2016 Rise Set
Actual Time
Civil Twilight
Nautical Twilight
Astronomical Twilight
Moon
Length of Visible Light
Length of Day
Tomorrow will be .
, % of the Moon is Illuminated

Today's Extremes

State Highs State Lows

Community

WunderPhotos

Upload Photos

1,891,826 photos uploaded!

WunderBlog® & News

Nearby

Air Quality

  Air Quality AQ Index Pollutant
Not available.

Snow Depth

Station Depth Elevation

Earthquake Activity

City Distance Mag. Time & Date
Minimum magnitude displayed is 2.5.

Coastal Water Temperatures

Place Temperature

Stations

Nearby Weather Stations

Station Location Temp. Windchill Dew Point Humidity Wind Precip. Elev Updated Type
                   

Watches & Warnings

There are currently no watches in effect.